Time;durP1;ratioP1;P1;durP2;ratioP2;P2;SDS_P1;SDS_P2;PMS_P1;PMS_P2;Temp;Humidity;BMP_temperature;BMP_pressure;BME280_temperature;BME280_humidity;BME280_pressure;Samples;Min_cycle;Max_cycle;Signal;HPM_P1;HPM_P2
2024/01/07 00:00:18;;;;;;;16.90;8.10;;;0.20;99.90;;;;;;5040016;28;20029;-71
2024/01/07 00:02:43;;;;;;;19.77;8.77;;;0.20;99.90;;;;;;5040081;28;20022;-69
2024/01/07 00:05:09;;;;;;;18.08;8.77;;;0.20;99.90;;;;;;5045538;28;20022;-70
2024/01/07 00:07:34;;;;;;;15.65;7.53;;;0.20;99.90;;;;;;5045601;28;20030;-71
2024/01/07 00:10:00;;;;;;;19.35;8.82;;;0.30;99.90;;;;;;5044025;28;20047;-70
2024/01/07 00:12:25;;;;;;;19.58;8.82;;;0.30;99.90;;;;;;5045515;28;20030;-71
2024/01/07 00:14:51;;;;;;;13.85;7.32;;;0.20;99.90;;;;;;5045630;28;20022;-70
2024/01/07 00:17:16;;;;;;;15.48;8.30;;;0.20;99.90;;;;;;5043751;28;20029;-73
2024/01/07 00:19:42;;;;;;;21.52;9.95;;;0.20;99.90;;;;;;5044097;28;20033;-71
2024/01/07 00:22:07;;;;;;;15.57;8.20;;;0.20;99.90;;;;;;5045159;28;20057;-68
2024/01/07 00:24:33;;;;;;;16.30;8.13;;;0.20;99.90;;;;;;5043978;28;20025;-69
2024/01/07 00:26:59;;;;;;;16.08;7.53;;;0.20;99.90;;;;;;5045181;28;20363;-71
2024/01/07 00:29:24;;;;;;;16.58;7.43;;;0.20;99.90;;;;;;5045231;28;20056;-70
2024/01/07 00:31:50;;;;;;;16.55;7.45;;;0.20;99.90;;;;;;5045034;28;20037;-70
2024/01/07 00:34:16;;;;;;;16.05;7.75;;;0.20;99.90;;;;;;5045201;28;20409;-70
2024/01/07 00:36:41;;;;;;;16.98;6.93;;;0.10;99.90;;;;;;5045107;28;20036;-70
2024/01/07 00:39:07;;;;;;;15.38;6.97;;;0.20;99.90;;;;;;5044826;28;20068;-69
2024/01/07 00:41:32;;;;;;;18.30;7.47;;;0.20;99.90;;;;;;5045181;28;20021;-70
2024/01/07 00:43:58;;;;;;;12.77;6.80;;;0.10;99.90;;;;;;5044701;28;20865;-72
2024/01/07 00:46:24;;;;;;;15.20;6.70;;;0.10;99.90;;;;;;5045020;28;20066;-69
2024/01/07 00:48:49;;;;;;;12.85;6.13;;;0.10;99.90;;;;;;5044794;28;20041;-70
2024/01/07 00:51:15;;;;;;;16.27;7.13;;;0.10;99.90;;;;;;5044611;28;20056;-71
2024/01/07 00:53:40;;;;;;;14.35;6.53;;;0.10;99.90;;;;;;5043210;28;20026;-73
2024/01/07 00:56:07;;;;;;;13.90;6.30;;;0.00;99.90;;;;;;5043284;28;20018;-71
2024/01/07 00:58:32;;;;;;;14.05;6.75;;;0.00;99.90;;;;;;5044586;28;20018;-72
2024/01/07 01:00:59;;;;;;;11.95;6.00;;;0.00;99.90;;;;;;5044631;28;20098;-69
2024/01/07 01:03:26;;;;;;;17.33;7.30;;;-0.10;99.90;;;;;;5044072;28;20048;-69
2024/01/07 01:05:52;;;;;;;11.60;5.90;;;-0.10;99.90;;;;;;5044387;28;20727;-70
2024/01/07 01:08:18;;;;;;;12.13;6.38;;;0.00;99.90;;;;;;5044356;28;20132;-69
2024/01/07 01:10:43;;;;;;;11.73;6.15;;;-0.10;99.90;;;;;;5044526;28;20088;-69
2024/01/07 01:13:09;;;;;;;13.52;6.35;;;-0.10;99.90;;;;;;5044161;28;20029;-69
2024/01/07 01:15:35;;;;;;;11.55;5.97;;;-0.10;99.90;;;;;;5043193;28;20029;-71
2024/01/07 01:18:00;;;;;;;11.50;5.50;;;-0.10;99.90;;;;;;5042379;28;20022;-71
2024/01/07 01:20:26;;;;;;;11.38;5.45;;;-0.10;99.90;;;;;;5044302;28;20854;-70
2024/01/07 01:22:52;;;;;;;13.38;5.53;;;-0.10;99.90;;;;;;5044430;28;20112;-69
2024/01/07 01:25:17;;;;;;;16.73;5.65;;;-0.10;99.90;;;;;;5042827;28;20132;-71
2024/01/07 01:27:44;;;;;;;12.57;5.43;;;-0.10;99.90;;;;;;5043962;28;20022;-70
2024/01/07 01:30:10;;;;;;;13.15;6.28;;;-0.10;99.90;;;;;;5044105;28;20105;-70
2024/01/07 01:32:36;;;;;;;13.10;6.22;;;-0.10;99.90;;;;;;5043457;28;20037;-71
2024/01/07 01:35:01;;;;;;;13.75;6.00;;;-0.20;99.90;;;;;;5042576;28;20029;-72
2024/01/07 01:37:27;;;;;;;14.43;6.70;;;-0.20;99.90;;;;;;5042766;28;20056;-71
2024/01/07 01:39:53;;;;;;;12.50;6.80;;;-0.20;99.90;;;;;;5043721;28;20037;-71
2024/01/07 01:42:18;;;;;;;11.10;5.63;;;-0.20;99.90;;;;;;5042298;28;20028;-70
2024/01/07 01:44:45;;;;;;;11.60;6.38;;;-0.20;99.90;;;;;;5042449;28;20479;-72
2024/01/07 01:47:11;;;;;;;11.65;6.45;;;-0.20;99.90;;;;;;5041805;28;20021;-69
2024/01/07 01:49:38;;;;;;;13.05;5.90;;;-0.20;99.90;;;;;;5043621;28;20076;-70
2024/01/07 01:52:04;;;;;;;16.10;6.22;;;-0.20;99.90;;;;;;5042386;28;20022;-70
2024/01/07 01:54:30;;;;;;;13.75;6.47;;;-0.30;99.90;;;;;;5043487;28;20026;-70
2024/01/07 01:56:56;;;;;;;16.17;6.75;;;-0.30;99.90;;;;;;5043705;28;20096;-71
2024/01/07 01:59:22;;;;;;;15.50;6.65;;;-0.20;99.90;;;;;;5041934;28;20021;-71
2024/01/07 02:01:48;;;;;;;13.95;6.88;;;-0.30;99.90;;;;;;5043349;28;20029;-72
2024/01/07 02:04:15;;;;;;;19.58;7.63;;;-0.30;99.90;;;;;;5041894;28;20072;-70
2024/01/07 02:06:40;;;;;;;14.77;7.30;;;-0.30;99.90;;;;;;5042773;28;20025;-73
2024/01/07 02:09:06;;;;;;;14.35;6.63;;;-0.20;99.90;;;;;;5043015;28;20097;-70
2024/01/07 02:11:31;;;;;;;15.45;7.05;;;-0.20;99.90;;;;;;5042239;28;20025;-71
2024/01/07 02:13:57;;;;;;;13.40;6.10;;;-0.20;99.90;;;;;;5043277;28;20044;-72
2024/01/07 02:16:23;;;;;;;12.75;5.93;;;-0.20;99.90;;;;;;5043297;28;20029;-71
2024/01/07 02:18:48;;;;;;;13.18;5.63;;;-0.20;99.90;;;;;;5043221;28;20041;-72
2024/01/07 02:21:15;;;;;;;15.25;5.60;;;-0.20;99.90;;;;;;5042972;28;20019;-71
2024/01/07 02:23:41;;;;;;;13.05;5.00;;;-0.20;99.90;;;;;;5042994;28;20037;-71
2024/01/07 02:26:06;;;;;;;13.98;5.25;;;-0.20;99.90;;;;;;5042581;28;20021;-72
2024/01/07 02:28:33;;;;;;;11.55;4.78;;;-0.20;99.90;;;;;;5042895;28;20153;-75
2024/01/07 02:30:58;;;;;;;8.65;4.47;;;-0.20;99.90;;;;;;5041370;28;20032;-70
2024/01/07 02:33:24;;;;;;;9.77;4.68;;;-0.20;99.90;;;;;;5041703;28;20025;-73
2024/01/07 02:35:50;;;;;;;7.97;4.10;;;-0.10;99.90;;;;;;5041442;28;20026;-71
2024/01/07 02:38:15;;;;;;;8.55;4.30;;;-0.10;99.90;;;;;;5042683;28;20101;-70
2024/01/07 02:40:41;;;;;;;9.90;4.40;;;-0.10;99.90;;;;;;5042620;28;20051;-72
2024/01/07 02:43:07;;;;;;;10.40;4.07;;;-0.20;99.90;;;;;;5041214;28;20125;-70
2024/01/07 02:45:33;;;;;;;9.70;4.18;;;-0.20;99.90;;;;;;5040763;28;20052;-72
2024/01/07 02:47:58;;;;;;;8.13;3.67;;;-0.10;99.90;;;;;;5042559;28;20022;-71
2024/01/07 02:50:24;;;;;;;8.35;3.72;;;-0.10;99.90;;;;;;5041211;28;20034;-72
2024/01/07 02:52:49;;;;;;;7.10;3.72;;;-0.10;99.90;;;;;;5042496;28;20032;-71
2024/01/07 02:55:15;;;;;;;9.88;3.53;;;-0.20;99.90;;;;;;5042523;28;20028;-71
2024/01/07 02:57:41;;;;;;;5.70;3.35;;;-0.20;99.90;;;;;;5042367;28;20041;-72
2024/01/07 03:00:07;;;;;;;7.57;3.10;;;-0.20;99.90;;;;;;5041015;28;20029;-71
2024/01/07 03:02:33;;;;;;;7.03;3.03;;;-0.20;99.90;;;;;;5040420;28;20025;-74
2024/01/07 03:04:59;;;;;;;6.25;3.10;;;-0.20;99.90;;;;;;5042193;28;20104;-72
2024/01/07 03:07:25;;;;;;;6.07;3.00;;;-0.20;99.90;;;;;;5041068;28;20451;-71
2024/01/07 03:09:51;;;;;;;7.40;3.42;;;-0.10;99.90;;;;;;5040947;28;20037;-73
2024/01/07 03:12:17;;;;;;;8.75;3.20;;;-0.10;99.90;;;;;;5040566;28;21406;-73
2024/01/07 03:14:43;;;;;;;4.85;2.63;;;-0.20;99.90;;;;;;5041693;28;20029;-73
2024/01/07 03:17:10;;;;;;;8.85;3.10;;;-0.20;99.90;;;;;;5041622;28;20116;-71
2024/01/07 03:19:37;;;;;;;11.35;3.00;;;-0.20;99.90;;;;;;5040641;28;20105;-71
2024/01/07 03:22:03;;;;;;;4.47;2.58;;;-0.20;99.90;;;;;;5040869;28;20116;-71
2024/01/07 03:24:29;;;;;;;7.22;2.90;;;-0.20;99.90;;;;;;5042103;28;20021;-73
2024/01/07 03:26:54;;;;;;;8.18;3.25;;;-0.20;99.90;;;;;;5042211;28;20018;-72
2024/01/07 03:29:20;;;;;;;5.85;2.75;;;-0.20;99.90;;;;;;5040389;28;20098;-73
2024/01/07 03:31:45;;;;;;;6.82;2.95;;;-0.30;99.90;;;;;;5041898;28;20044;-73
2024/01/07 03:34:11;;;;;;;5.05;2.53;;;-0.20;99.90;;;;;;5041770;28;20135;-72
2024/01/07 03:36:37;;;;;;;9.70;2.95;;;-0.30;99.90;;;;;;5041992;28;20026;-70
2024/01/07 03:39:02;;;;;;;6.63;2.88;;;-0.30;99.90;;;;;;5041094;28;20029;-71
2024/01/07 03:41:28;;;;;;;6.68;3.00;;;-0.30;99.90;;;;;;5041857;28;20429;-71
2024/01/07 03:43:53;;;;;;;6.07;2.95;;;-0.30;99.90;;;;;;5040705;28;20160;-72
2024/01/07 03:46:19;;;;;;;6.03;2.90;;;-0.30;99.90;;;;;;5041625;28;20021;-70
2024/01/07 03:48:45;;;;;;;5.22;3.03;;;-0.20;99.90;;;;;;5041894;28;20060;-73
2024/01/07 03:51:10;;;;;;;5.53;2.55;;;-0.20;99.90;;;;;;5041648;28;20057;-70
2024/01/07 03:53:36;;;;;;;6.00;2.63;;;-0.20;99.90;;;;;;5041668;28;20022;-70
2024/01/07 03:56:02;;;;;;;8.90;3.13;;;-0.20;99.90;;;;;;5040467;28;20127;-73
2024/01/07 03:58:27;;;;;;;7.47;3.35;;;-0.30;99.90;;;;;;5041747;28;20061;-73
2024/01/07 04:00:53;;;;;;;7.15;3.03;;;-0.20;99.90;;;;;;5041775;28;20124;-72
2024/01/07 04:03:19;;;;;;;7.47;2.67;;;-0.30;99.90;;;;;;5040069;28;20045;-71
2024/01/07 04:05:45;;;;;;;9.20;2.40;;;-0.30;99.90;;;;;;5040139;28;20097;-72
2024/01/07 04:08:11;;;;;;;7.68;2.67;;;-0.30;99.90;;;;;;5041244;28;20076;-71
2024/01/07 04:10:37;;;;;;;8.70;3.40;;;-0.30;99.90;;;;;;5040474;28;20052;-71
2024/01/07 04:13:04;;;;;;;6.30;2.85;;;-0.30;99.90;;;;;;5041437;28;20022;-70
2024/01/07 04:15:29;;;;;;;5.82;2.58;;;-0.30;99.90;;;;;;5041770;28;20029;-72
2024/01/07 04:17:55;;;;;;;6.53;2.72;;;-0.30;99.90;;;;;;5041607;28;20032;-71
2024/01/07 04:20:21;;;;;;;6.00;2.47;;;-0.30;99.90;;;;;;5040534;28;20061;-71
2024/01/07 04:22:47;;;;;;;5.00;2.55;;;-0.30;99.90;;;;;;5039892;28;20071;-70
2024/01/07 04:25:13;;;;;;;4.22;2.05;;;-0.30;99.90;;;;;;5041294;28;20078;-72
2024/01/07 04:27:38;;;;;;;5.93;2.53;;;-0.40;99.90;;;;;;5041052;28;20056;-72
2024/01/07 04:30:05;;;;;;;4.88;2.45;;;-0.40;99.90;;;;;;5041049;28;20033;-70
2024/01/07 04:32:32;;;;;;;6.28;2.50;;;-0.40;99.90;;;;;;5041301;28;20048;-72
2024/01/07 04:34:57;;;;;;;7.90;2.80;;;-0.40;99.90;;;;;;5041097;28;20021;-71
2024/01/07 04:37:24;;;;;;;5.70;2.40;;;-0.40;99.90;;;;;;5041245;28;20343;-69
2024/01/07 04:39:50;;;;;;;4.78;2.30;;;-0.40;99.90;;;;;;5040623;28;20036;-72
2024/01/07 04:42:19;;;;;;;6.57;2.67;;;-0.50;99.90;;;;;;5039405;28;20022;-71
2024/01/07 04:44:44;;;;;;;5.53;2.30;;;-0.50;99.90;;;;;;5040787;28;20018;-73
2024/01/07 04:47:30;;;;;;;7.18;2.70;;;-0.50;99.90;;;;;;5040829;28;20036;-71
2024/01/07 04:49:57;;;;;;;4.30;2.58;;;-0.60;99.90;;;;;;5040992;28;20037;-73
2024/01/07 04:52:23;;;;;;;4.53;2.33;;;-0.60;99.90;;;;;;5044596;28;20029;-71
2024/01/07 04:54:51;;;;;;;4.90;2.30;;;-0.70;99.90;;;;;;5044236;28;20100;-74
2024/01/07 04:57:16;;;;;;;6.32;2.72;;;-0.70;99.90;;;;;;5041409;28;20026;-71
2024/01/07 04:59:42;;;;;;;8.63;2.72;;;-0.70;99.90;;;;;;5042674;28;20052;-71
2024/01/07 05:02:07;;;;;;;6.07;2.63;;;-0.70;99.90;;;;;;5044083;28;20101;-72
2024/01/07 05:04:34;;;;;;;6.00;2.45;;;-0.70;99.90;;;;;;5043534;28;20046;-72
2024/01/07 05:07:00;;;;;;;5.28;2.55;;;-0.70;99.90;;;;;;5039186;28;20255;-71
2024/01/07 05:09:25;;;;;;;8.60;2.75;;;-0.70;99.90;;;;;;5043446;28;20042;-72
2024/01/07 05:11:51;;;;;;;6.20;2.40;;;-0.70;99.90;;;;;;5043584;28;20096;-72
2024/01/07 05:14:16;;;;;;;6.50;2.53;;;-0.70;99.90;;;;;;5044063;28;20025;-71
2024/01/07 05:16:42;;;;;;;6.30;2.80;;;-0.60;99.90;;;;;;5042983;28;20502;-70
2024/01/07 05:19:07;;;;;;;8.75;2.88;;;-0.60;99.90;;;;;;5044036;28;20053;-70
2024/01/07 05:21:33;;;;;;;11.80;2.85;;;-0.60;99.90;;;;;;5043030;28;20021;-72
2024/01/07 05:23:59;;;;;;;6.22;2.53;;;-0.60;99.90;;;;;;5042522;28;21302;-72
2024/01/07 05:26:24;;;;;;;6.10;2.60;;;-0.70;99.90;;;;;;5044241;28;20041;-72
2024/01/07 05:28:50;;;;;;;6.45;2.83;;;-0.60;99.90;;;;;;5043920;28;20068;-70
2024/01/07 05:31:16;;;;;;;7.28;2.90;;;-0.60;99.90;;;;;;5043570;28;20041;-70
2024/01/07 05:33:43;;;;;;;6.90;2.83;;;-0.60;99.90;;;;;;5043657;28;20018;-70
2024/01/07 05:36:09;;;;;;;5.93;2.63;;;-0.60;99.90;;;;;;5043846;28;20021;-69
2024/01/07 05:38:35;;;;;;;5.30;2.40;;;-0.60;99.90;;;;;;5043505;28;20029;-69
2024/01/07 05:41:00;;;;;;;5.82;2.33;;;-0.60;99.90;;;;;;5043811;28;20132;-72
2024/01/07 05:43:26;;;;;;;6.55;2.72;;;-0.60;99.90;;;;;;5043369;28;20037;-71
2024/01/07 05:45:52;;;;;;;4.35;2.38;;;-0.50;99.90;;;;;;5043402;28;20044;-70
2024/01/07 05:48:17;;;;;;;5.95;2.80;;;-0.60;99.90;;;;;;5043440;28;20034;-71
2024/01/07 05:50:43;;;;;;;7.70;3.13;;;-0.50;99.90;;;;;;5043634;28;20030;-69
2024/01/07 05:53:08;;;;;;;6.45;2.55;;;-0.50;99.90;;;;;;5041128;28;20040;-69
2024/01/07 05:55:34;;;;;;;8.63;2.83;;;-0.50;99.90;;;;;;5043571;28;20026;-69
2024/01/07 05:57:59;;;;;;;6.00;2.72;;;-0.50;99.90;;;;;;5043551;28;20028;-69
2024/01/07 06:00:25;;;;;;;7.82;2.83;;;-0.50;99.90;;;;;;5040659;28;20451;-71
2024/01/07 06:02:50;;;;;;;7.60;2.70;;;-0.40;99.90;;;;;;5042589;28;20053;-69
2024/01/07 06:05:16;;;;;;;8.77;2.90;;;-0.40;99.90;;;;;;5042989;28;20033;-69
2024/01/07 06:07:42;;;;;;;5.60;2.63;;;-0.40;99.90;;;;;;5040844;28;20052;-69
2024/01/07 06:10:08;;;;;;;9.07;2.92;;;-0.40;99.90;;;;;;5042486;28;20038;-69
2024/01/07 06:12:33;;;;;;;5.13;2.33;;;-0.40;99.90;;;;;;5043133;28;20051;-69
2024/01/07 06:14:59;;;;;;;7.88;3.00;;;-0.40;99.90;;;;;;5042952;28;20060;-70
2024/01/07 06:17:25;;;;;;;6.30;2.90;;;-0.40;99.90;;;;;;5043352;28;20029;-69
2024/01/07 06:19:50;;;;;;;6.85;2.90;;;-0.30;99.90;;;;;;5042888;28;20033;-70
2024/01/07 06:22:16;;;;;;;7.43;2.85;;;-0.30;99.90;;;;;;5042649;28;20037;-69
2024/01/07 06:24:41;;;;;;;6.35;3.13;;;-0.30;99.90;;;;;;5043015;28;20025;-71
2024/01/07 06:27:07;;;;;;;6.60;3.13;;;-0.40;99.90;;;;;;5042346;28;20156;-69
2024/01/07 06:29:33;;;;;;;5.07;2.70;;;-0.30;99.90;;;;;;5042100;28;20040;-71
2024/01/07 06:31:59;;;;;;;5.97;2.78;;;-0.30;99.90;;;;;;5042662;28;20021;-69
2024/01/07 06:34:24;;;;;;;5.97;3.13;;;-0.30;99.90;;;;;;5042739;28;20029;-70
2024/01/07 06:36:50;;;;;;;7.70;3.03;;;-0.30;99.90;;;;;;5042540;28;20021;-70
2024/01/07 06:39:16;;;;;;;6.75;2.60;;;-0.30;99.90;;;;;;5042562;28;20029;-69
2024/01/07 06:41:42;;;;;;;6.07;2.90;;;-0.30;99.90;;;;;;5041289;28;20064;-70
2024/01/07 06:44:07;;;;;;;8.45;2.88;;;-0.30;99.90;;;;;;5042516;28;20039;-72
2024/01/07 06:46:34;;;;;;;7.72;2.90;;;-0.30;99.90;;;;;;5041214;28;20051;-72
2024/01/07 06:49:00;;;;;;;9.02;2.97;;;-0.30;99.90;;;;;;5039439;28;20482;-70
2024/01/07 06:51:26;;;;;;;8.15;2.78;;;-0.20;99.90;;;;;;5038618;28;20022;-70
2024/01/07 06:53:51;;;;;;;5.57;2.55;;;-0.20;99.90;;;;;;5042348;28;20028;-69
2024/01/07 06:56:17;;;;;;;7.00;3.05;;;-0.30;99.90;;;;;;5039756;28;20057;-70
2024/01/07 06:58:43;;;;;;;5.55;2.30;;;-0.30;99.90;;;;;;5026546;28;20798;-71
2024/01/07 07:01:08;;;;;;;6.22;2.53;;;-0.20;99.90;;;;;;5027815;28;20037;-71
2024/01/07 07:03:34;;;;;;;8.38;3.05;;;-0.30;99.90;;;;;;5034443;28;20056;-70
2024/01/07 07:06:00;;;;;;;7.50;2.97;;;-0.20;99.90;;;;;;5041289;28;20056;-71
2024/01/07 07:08:26;;;;;;;5.15;2.78;;;-0.20;99.90;;;;;;5039643;28;20068;-70
2024/01/07 07:10:51;;;;;;;7.13;3.00;;;-0.20;99.90;;;;;;5040486;28;20043;-68
2024/01/07 07:13:17;;;;;;;4.15;2.17;;;-0.20;99.90;;;;;;5039508;28;20085;-70
2024/01/07 07:15:42;;;;;;;4.35;2.10;;;-0.20;99.90;;;;;;5040111;28;20040;-69
2024/01/07 07:18:08;;;;;;;4.38;2.17;;;-0.20;99.90;;;;;;5041410;28;20033;-70
2024/01/07 07:20:34;;;;;;;5.78;2.35;;;-0.20;99.90;;;;;;5042095;28;20089;-70
2024/01/07 07:22:59;;;;;;;6.90;2.60;;;-0.20;99.90;;;;;;5042084;28;20081;-70
2024/01/07 07:25:25;;;;;;;8.20;2.33;;;-0.20;99.90;;;;;;5041734;28;20026;-71
2024/01/07 07:27:50;;;;;;;5.10;2.40;;;-0.20;99.90;;;;;;5040613;28;20053;-69
2024/01/07 07:30:16;;;;;;;4.22;1.85;;;-0.10;99.90;;;;;;5041388;28;20052;-69
2024/01/07 07:32:42;;;;;;;5.13;2.25;;;-0.10;99.90;;;;;;5039702;28;20021;-70
2024/01/07 07:35:08;;;;;;;6.45;2.15;;;0.00;99.90;;;;;;5039313;28;20486;-71
2024/01/07 07:37:33;;;;;;;5.13;1.85;;;0.00;99.90;;;;;;5040690;28;20853;-71
2024/01/07 07:39:59;;;;;;;6.43;2.10;;;0.00;99.90;;;;;;5040897;28;20029;-70
2024/01/07 07:42:25;;;;;;;3.97;1.90;;;0.00;99.90;;;;;;5040831;28;20075;-71
2024/01/07 07:44:50;;;;;;;5.72;2.40;;;0.20;99.90;;;;;;5039823;28;20021;-71
2024/01/07 07:47:16;;;;;;;11.77;2.50;;;0.10;99.90;;;;;;5040857;28;20033;-70
2024/01/07 07:49:41;;;;;;;5.68;2.17;;;0.10;99.90;;;;;;5040950;28;20038;-69
2024/01/07 07:52:08;;;;;;;3.75;2.03;;;0.10;99.90;;;;;;5040369;28;20068;-70
2024/01/07 07:54:35;;;;;;;6.32;2.22;;;0.20;99.90;;;;;;5038522;28;20470;-71
2024/01/07 07:57:00;;;;;;;5.18;2.60;;;0.20;99.90;;;;;;5040881;28;20060;-70
2024/01/07 07:59:26;;;;;;;5.18;2.50;;;0.20;99.90;;;;;;5041494;28;20030;-69
2024/01/07 08:01:51;;;;;;;5.13;2.58;;;0.20;99.90;;;;;;5041039;28;20026;-68
2024/01/07 08:04:17;;;;;;;4.78;2.10;;;0.20;99.90;;;;;;5038942;28;20445;-70
2024/01/07 08:06:44;;;;;;;6.07;2.45;;;0.30;99.90;;;;;;5038617;28;20097;-69
2024/01/07 08:09:10;;;;;;;9.10;2.28;;;0.30;99.90;;;;;;5040956;28;20132;-69
2024/01/07 08:11:36;;;;;;;4.80;2.15;;;0.20;99.90;;;;;;5041292;28;20026;-69
2024/01/07 08:14:02;;;;;;;7.10;2.50;;;0.20;99.90;;;;;;5039669;28;20475;-69
2024/01/07 08:16:27;;;;;;;11.68;2.60;;;0.20;99.90;;;;;;5041160;28;20053;-71
2024/01/07 08:18:56;;;;;;;4.65;2.67;;;0.20;99.90;;;;;;5038598;28;20083;-70
2024/01/07 08:21:23;;;;;;;4.97;2.55;;;0.10;99.90;;;;;;5036486;28;20055;-70
2024/01/07 08:23:48;;;;;;;8.63;2.47;;;0.10;99.90;;;;;;5038601;28;20025;-70
2024/01/07 08:26:19;;;;;;;5.75;2.63;;;0.10;99.90;;;;;;5044768;28;20026;-69
2024/01/07 08:28:45;;;;;;;7.13;2.75;;;0.20;99.90;;;;;;5042276;28;20052;-68
2024/01/07 08:31:10;;;;;;;6.05;2.58;;;0.20;99.90;;;;;;5044447;28;20030;-69
2024/01/07 08:33:36;;;;;;;7.43;2.78;;;0.20;99.90;;;;;;5043388;28;20072;-71
2024/01/07 08:36:01;;;;;;;9.90;3.03;;;0.20;99.90;;;;;;5043324;28;20032;-70
2024/01/07 08:38:27;;;;;;;5.63;2.85;;;0.20;99.90;;;;;;5042323;28;20026;-70
2024/01/07 08:40:53;;;;;;;7.65;2.70;;;0.20;99.90;;;;;;5044331;28;20029;-72
2024/01/07 08:43:18;;;;;;;9.43;2.85;;;0.30;99.90;;;;;;5040368;28;20025;-70
2024/01/07 08:45:44;;;;;;;6.68;3.13;;;0.30;99.90;;;;;;5043408;28;20044;-70
2024/01/07 08:48:09;;;;;;;8.85;3.03;;;0.30;99.90;;;;;;5044129;28;20045;-71
2024/01/07 08:50:35;;;;;;;7.10;3.55;;;0.30;99.90;;;;;;5043682;28;20032;-69
2024/01/07 08:53:00;;;;;;;9.10;3.83;;;0.30;99.90;;;;;;5041443;28;20060;-69
2024/01/07 08:55:27;;;;;;;9.10;3.63;;;0.30;99.90;;;;;;5043950;28;20022;-72
2024/01/07 08:57:53;;;;;;;11.57;4.03;;;0.30;99.90;;;;;;5043302;28;20017;-69
2024/01/07 09:00:19;;;;;;;8.35;3.92;;;0.30;99.90;;;;;;5044588;28;20105;-71
2024/01/07 09:02:44;;;;;;;10.75;4.63;;;0.30;99.90;;;;;;5043870;28;21441;-69
2024/01/07 09:05:12;;;;;;;8.60;4.00;;;0.30;99.90;;;;;;5044408;28;20025;-70
2024/01/07 09:07:38;;;;;;;7.03;4.10;;;0.30;99.90;;;;;;5043906;28;20017;-70
2024/01/07 09:10:08;;;;;;;10.25;4.60;;;0.20;99.90;;;;;;5042041;28;20044;-71
2024/01/07 09:12:34;;;;;;;7.85;3.88;;;0.20;99.90;;;;;;5040818;28;20025;-71
2024/01/07 09:14:59;;;;;;;11.95;5.10;;;0.30;99.90;;;;;;5042755;28;20025;-69
2024/01/07 09:17:25;;;;;;;10.45;4.60;;;0.30;99.90;;;;;;5044076;28;20100;-70
2024/01/07 09:19:50;;;;;;;12.95;4.82;;;0.40;99.90;;;;;;5040829;28;20030;-70
2024/01/07 09:22:16;;;;;;;14.70;4.97;;;0.40;99.90;;;;;;5043443;28;20072;-70
2024/01/07 09:24:41;;;;;;;12.18;5.30;;;0.50;99.90;;;;;;5042342;28;20540;-69
2024/01/07 09:27:07;;;;;;;10.10;5.18;;;0.70;99.90;;;;;;5039588;28;20029;-70
2024/01/07 09:29:36;;;;;;;11.43;5.35;;;0.90;99.90;;;;;;5039877;28;20038;-70
2024/01/07 09:32:01;;;;;;;14.80;5.32;;;1.10;99.90;;;;;;5041070;28;20026;-69
2024/01/07 09:34:27;;;;;;;12.38;5.03;;;1.40;99.90;;;;;;5043446;28;20081;-71
2024/01/07 09:36:52;;;;;;;13.63;5.97;;;1.70;99.90;;;;;;5038142;28;20037;-70
2024/01/07 09:39:18;;;;;;;12.93;5.68;;;1.90;99.90;;;;;;5043273;28;20500;-70
2024/01/07 09:41:43;;;;;;;13.88;5.25;;;2.30;99.90;;;;;;5043468;28;20025;-69
2024/01/07 09:44:09;;;;;;;9.35;4.57;;;2.80;99.90;;;;;;5042712;28;20033;-69
2024/01/07 09:46:38;;;;;;;11.13;4.75;;;3.30;99.90;;;;;;5042737;28;20026;-70
2024/01/07 09:49:03;;;;;;;10.77;5.10;;;3.60;99.90;;;;;;5041970;28;20042;-68
2024/01/07 09:51:32;;;;;;;12.20;5.63;;;4.00;99.90;;;;;;5042962;28;20027;-70
2024/01/07 09:54:03;;;;;;;9.48;5.03;;;4.30;99.90;;;;;;5039924;28;20072;-68
2024/01/07 09:56:38;;;;;;;9.73;4.38;;;4.60;99.90;;;;;;5042666;28;20028;-69
2024/01/07 09:59:04;;;;;;;8.98;5.18;;;4.70;99.90;;;;;;5042118;28;20036;-68
2024/01/07 10:01:31;;;;;;;14.13;6.47;;;4.90;99.90;;;;;;5043027;28;20033;-71
2024/01/07 10:03:57;;;;;;;12.77;5.40;;;5.10;99.90;;;;;;5040962;28;20487;-71
2024/01/07 10:06:22;;;;;;;10.80;4.75;;;5.40;99.90;;;;;;5040532;28;20025;-69
2024/01/07 10:08:48;;;;;;;9.30;4.72;;;5.40;99.90;;;;;;5042302;28;20041;-70
2024/01/07 10:11:14;;;;;;;8.80;4.80;;;5.60;99.90;;;;;;5039920;28;20026;-68
2024/01/07 10:13:40;;;;;;;9.65;4.35;;;5.60;99.90;;;;;;5042421;28;20026;-69
2024/01/07 10:16:08;;;;;;;10.82;4.60;;;5.70;99.90;;;;;;5041883;28;20029;-69
2024/01/07 10:18:34;;;;;;;10.15;3.90;;;5.80;99.90;;;;;;5042066;28;20391;-68
2024/01/07 10:21:06;;;;;;;7.53;3.97;;;5.90;99.90;;;;;;5041546;28;20085;-68
2024/01/07 10:23:31;;;;;;;7.10;3.70;;;6.00;99.90;;;;;;5042479;28;20056;-68
2024/01/07 10:25:57;;;;;;;9.95;4.63;;;6.10;99.90;;;;;;5042107;28;20033;-68
2024/01/07 10:28:23;;;;;;;8.38;4.57;;;6.30;99.90;;;;;;5042392;28;20042;-66
2024/01/07 10:30:52;;;;;;;10.18;4.35;;;6.40;99.90;;;;;;5041616;28;20041;-67
2024/01/07 10:33:22;;;;;;;8.32;4.22;;;6.20;99.90;;;;;;5040841;28;20037;-68
2024/01/07 10:36:03;;;;;;;7.95;3.85;;;6.10;99.90;;;;;;5042077;28;20025;-67
2024/01/07 10:38:29;;;;;;;10.52;3.95;;;6.00;99.90;;;;;;5042382;28;20394;-68
2024/01/07 10:40:58;;;;;;;10.38;4.53;;;5.80;99.90;;;;;;5041296;28;20049;-68
2024/01/07 10:43:25;;;;;;;11.43;5.07;;;5.90;99.90;;;;;;5056616;28;20037;-66
2024/01/07 10:45:52;;;;;;;11.63;3.80;;;5.90;99.90;;;;;;5041118;28;20035;-67
2024/01/07 10:48:19;;;;;;;8.80;3.97;;;6.10;99.90;;;;;;5041786;28;20711;-66
2024/01/07 10:50:46;;;;;;;7.03;3.85;;;6.30;99.90;;;;;;5042407;28;20022;-69
2024/01/07 10:53:18;;;;;;;8.75;4.00;;;6.40;99.90;;;;;;5040600;28;20038;-70
2024/01/07 10:55:54;;;;;;;9.10;4.10;;;6.80;99.90;;;;;;5042237;28;20105;-68
2024/01/07 10:58:20;;;;;;;6.97;3.63;;;6.90;99.90;;;;;;5042142;28;20037;-67
2024/01/07 11:00:47;;;;;;;8.98;4.15;;;6.40;99.90;;;;;;5041563;28;20025;-68
2024/01/07 11:03:45;;;;;;;8.80;3.72;;;6.00;99.90;;;;;;5042157;28;20125;-69
2024/01/07 11:06:31;;;;;;;6.53;3.95;;;5.90;99.90;;;;;;5040427;28;20075;-68
2024/01/07 11:09:12;;;;;;;7.90;4.25;;;6.10;99.90;;;;;;5040836;28;20033;-68
2024/01/07 11:11:42;;;;;;;10.48;4.10;;;5.90;99.90;;;;;;5041000;28;20462;-69
2024/01/07 11:14:52;;;;;;;8.80;4.18;;;6.00;99.90;;;;;;5040518;28;20025;-69
2024/01/07 11:17:37;;;;;;;8.93;4.22;;;6.20;99.90;;;;;;5040737;28;20599;-69
2024/01/07 11:20:08;;;;;;;9.93;4.20;;;6.70;99.90;;;;;;5040788;28;20051;-67
2024/01/07 11:22:34;;;;;;;9.80;4.05;;;7.00;99.90;;;;;;5040247;28;20033;-70
2024/01/07 11:25:01;;;;;;;10.63;3.90;;;7.30;99.90;;;;;;5040228;28;20017;-68
2024/01/07 11:27:33;;;;;;;7.45;3.88;;;7.40;99.90;;;;;;5040214;28;20029;-68
2024/01/07 11:30:04;;;;;;;7.88;3.83;;;7.50;99.90;;;;;;5040894;28;20037;-68
2024/01/07 11:32:30;;;;;;;8.27;3.92;;;7.70;99.90;;;;;;5039852;28;20056;-70
2024/01/07 11:34:58;;;;;;;8.27;3.97;;;7.90;99.90;;;;;;5041109;28;21136;-65
2024/01/07 11:37:24;;;;;;;8.00;3.70;;;8.00;99.90;;;;;;5040750;28;20025;-66
2024/01/07 11:39:55;;;;;;;7.63;4.15;;;8.30;99.90;;;;;;5041190;28;20036;-66
2024/01/07 11:42:21;;;;;;;7.13;3.58;;;8.30;99.90;;;;;;5040756;28;20025;-66
2024/01/07 11:44:54;;;;;;;6.85;3.63;;;8.30;99.90;;;;;;5040929;28;20049;-68
2024/01/07 11:47:20;;;;;;;6.43;3.75;;;8.10;99.90;;;;;;5040193;28;20056;-67
2024/01/07 11:49:51;;;;;;;7.72;3.80;;;8.30;99.90;;;;;;5040835;28;20037;-66
2024/01/07 11:52:18;;;;;;;6.60;4.13;;;8.40;99.90;;;;;;5040808;28;20029;-66
2024/01/07 11:54:44;;;;;;;6.90;3.60;;;8.60;99.90;;;;;;5040895;28;20092;-70
2024/01/07 11:57:10;;;;;;;6.88;3.55;;;8.90;99.90;;;;;;5040182;28;20025;-66
2024/01/07 11:59:36;;;;;;;6.15;3.40;;;9.10;99.90;;;;;;5042783;28;20021;-66
2024/01/07 12:02:04;;;;;;;4.47;3.00;;;9.00;99.90;;;;;;5045749;28;20053;-68
2024/01/07 12:04:30;;;;;;;9.75;4.30;;;8.70;99.90;;;;;;5044532;28;20049;-66
2024/01/07 12:06:56;;;;;;;9.40;3.88;;;8.40;99.90;;;;;;5044724;28;20081;-66
2024/01/07 12:09:21;;;;;;;7.03;3.50;;;8.30;99.90;;;;;;5044589;28;20056;-67
2024/01/07 12:11:47;;;;;;;9.00;3.83;;;8.40;99.90;;;;;;5045294;28;20025;-66
2024/01/07 12:14:14;;;;;;;9.90;4.30;;;8.60;99.90;;;;;;5043991;28;20036;-66
2024/01/07 12:16:39;;;;;;;9.50;4.07;;;8.50;99.90;;;;;;5044896;28;20022;-67
2024/01/07 12:19:05;;;;;;;8.82;4.43;;;8.50;99.90;;;;;;5044083;28;20084;-65
2024/01/07 12:21:31;;;;;;;9.60;4.13;;;8.70;99.90;;;;;;5044532;28;20037;-66
2024/01/07 12:23:57;;;;;;;8.65;4.43;;;8.40;99.90;;;;;;5045054;28;20033;-64
2024/01/07 12:26:27;;;;;;;7.65;4.40;;;8.10;99.90;;;;;;5044877;28;20128;-66
2024/01/07 12:28:59;;;;;;;15.98;6.57;;;7.90;99.90;;;;;;5044822;28;20032;-65
2024/01/07 12:31:26;;;;;;;10.50;5.55;;;7.80;99.90;;;;;;5045056;28;20429;-66
2024/01/07 12:33:53;;;;;;;10.35;6.03;;;7.60;99.90;;;;;;5044779;28;20026;-67
2024/01/07 12:36:25;;;;;;;9.75;4.57;;;7.70;99.90;;;;;;5045030;28;20040;-66
2024/01/07 12:38:54;;;;;;;9.40;4.25;;;7.80;99.90;;;;;;5044319;28;20056;-68
2024/01/07 12:41:20;;;;;;;7.97;4.03;;;7.90;99.90;;;;;;5044006;28;20017;-66
2024/01/07 12:43:45;;;;;;;8.93;4.22;;;8.10;99.90;;;;;;5042386;28;20033;-65